Time;durP1;ratioP1;P1;durP2;ratioP2;P2;SDS_P1;SDS_P2;PMS_P1;PMS_P2;Temp;Humidity;BMP_temperature;BMP_pressure;BME280_temperature;BME280_humidity;BME280_pressure;Samples;Min_cycle;Max_cycle;Signal;HPM_P1;HPM_P2
2024/04/17 00:01:43;;;;;;;1.52;0.52;;;8.40;99.90;;;;;;5324355;26;19998;-71
2024/04/17 00:04:08;;;;;;;1.17;0.63;;;8.40;99.90;;;;;;5309975;27;20002;-70
2024/04/17 00:06:35;;;;;;;1.75;0.68;;;8.30;99.90;;;;;;5305749;26;20458;-70
2024/04/17 00:09:01;;;;;;;1.40;0.80;;;8.40;99.90;;;;;;5322112;26;20005;-70
2024/04/17 00:11:26;;;;;;;0.38;0.30;;;8.30;99.90;;;;;;5330861;26;20008;-70
2024/04/17 00:13:52;;;;;;;0.73;0.52;;;8.30;99.90;;;;;;5288036;27;19998;-70
2024/04/17 00:16:18;;;;;;;0.85;0.85;;;8.30;99.90;;;;;;5294552;26;20426;-71
2024/04/17 00:18:44;;;;;;;0.60;0.60;;;8.30;99.90;;;;;;5334519;26;20000;-71
2024/04/17 00:21:09;;;;;;;1.02;0.80;;;8.30;99.90;;;;;;5316296;26;20444;-71
2024/04/17 00:23:35;;;;;;;0.98;0.63;;;8.40;99.90;;;;;;5337413;26;20005;-71
2024/04/17 00:26:01;;;;;;;2.88;1.00;;;8.40;99.90;;;;;;5316057;26;20005;-71
2024/04/17 00:28:26;;;;;;;0.40;0.40;;;8.40;99.90;;;;;;5336604;26;20001;-71
2024/04/17 00:30:53;;;;;;;0.90;0.65;;;8.40;99.90;;;;;;5318965;26;19996;-70
2024/04/17 00:33:20;;;;;;;0.60;0.50;;;8.40;99.90;;;;;;5293061;27;20009;-70
2024/04/17 00:35:45;;;;;;;1.42;0.70;;;8.40;99.90;;;;;;5348583;21;20002;-71
2024/04/17 00:38:11;;;;;;;1.10;0.77;;;8.40;99.90;;;;;;5343325;26;20004;-71
2024/04/17 00:40:37;;;;;;;0.70;0.47;;;8.40;99.90;;;;;;5344262;26;20004;-71
2024/04/17 00:43:03;;;;;;;1.13;0.70;;;8.40;99.90;;;;;;5349022;26;20006;-71
2024/04/17 00:45:44;;;;;;;1.25;0.68;;;8.40;99.90;;;;;;5320624;26;20001;-71
2024/04/17 00:48:12;;;;;;;1.00;0.80;;;8.40;99.90;;;;;;5330240;26;20001;-71
2024/04/17 00:50:42;;;;;;;1.38;0.57;;;8.30;99.90;;;;;;5318946;26;20031;-71
2024/04/17 00:53:12;;;;;;;1.42;0.60;;;8.30;99.90;;;;;;5323065;26;20030;-71
2024/04/17 00:55:38;;;;;;;1.17;0.77;;;8.30;99.90;;;;;;5326708;26;20012;-71
2024/04/17 00:58:06;;;;;;;0.70;0.60;;;8.30;99.90;;;;;;5310479;26;20342;-71
2024/04/17 01:00:33;;;;;;;1.17;0.75;;;8.20;99.90;;;;;;5310564;26;20071;-71
2024/04/17 01:02:58;;;;;;;6.85;0.98;;;8.20;99.90;;;;;;5316735;26;20023;-72
2024/04/17 01:05:25;;;;;;;2.60;1.30;;;8.20;99.90;;;;;;5314968;26;20435;-72
2024/04/17 01:07:50;;;;;;;0.43;0.40;;;8.20;99.90;;;;;;5318621;26;20013;-71
2024/04/17 01:10:16;;;;;;;1.10;0.60;;;8.10;99.90;;;;;;5324080;26;20008;-72
2024/04/17 01:12:42;;;;;;;0.82;0.52;;;8.20;99.90;;;;;;5340388;26;19997;-71
2024/04/17 01:15:10;;;;;;;0.75;0.63;;;8.10;99.90;;;;;;5319053;26;20473;-72
2024/04/17 01:17:37;;;;;;;1.33;0.90;;;8.10;99.90;;;;;;5331205;26;20006;-72
2024/04/17 01:20:04;;;;;;;1.88;0.73;;;8.10;99.90;;;;;;5319118;26;20000;-71
2024/04/17 01:22:30;;;;;;;0.68;0.45;;;8.00;99.90;;;;;;5317024;26;20125;-72
2024/04/17 01:24:56;;;;;;;2.20;1.27;;;8.10;99.90;;;;;;5277592;26;20005;-72
2024/04/17 01:27:22;;;;;;;0.73;0.52;;;8.00;99.90;;;;;;5323112;26;20015;-72
2024/04/17 01:29:48;;;;;;;0.63;0.63;;;8.00;99.90;;;;;;5317427;26;20093;-71
2024/04/17 01:32:13;;;;;;;3.30;1.40;;;7.90;99.90;;;;;;5309909;26;20009;-72
2024/04/17 01:34:39;;;;;;;2.28;0.90;;;7.90;99.90;;;;;;5320175;26;20021;-72
2024/04/17 01:37:05;;;;;;;1.85;0.80;;;7.90;99.90;;;;;;5311525;26;20080;-71
2024/04/17 01:39:31;;;;;;;1.67;0.98;;;7.90;99.90;;;;;;5310699;26;20075;-71
2024/04/17 01:41:57;;;;;;;2.42;1.40;;;7.80;99.90;;;;;;5338401;26;20001;-70
2024/04/17 01:44:23;;;;;;;1.90;0.98;;;7.80;99.90;;;;;;5317619;26;20049;-71
2024/04/17 01:46:49;;;;;;;1.85;0.70;;;7.80;99.90;;;;;;5325247;26;20006;-71
2024/04/17 01:49:15;;;;;;;0.88;0.60;;;7.80;99.90;;;;;;5311613;26;20023;-71
2024/04/17 01:51:40;;;;;;;1.80;0.75;;;7.70;99.90;;;;;;5340170;26;20078;-71
2024/04/17 01:54:06;;;;;;;2.35;1.38;;;7.70;99.90;;;;;;5337221;26;20479;-72
2024/04/17 01:56:32;;;;;;;1.83;0.77;;;7.60;99.90;;;;;;5309595;26;20034;-71
2024/04/17 01:58:57;;;;;;;2.63;1.20;;;7.60;99.90;;;;;;5310174;26;20009;-72
2024/04/17 02:01:23;;;;;;;2.90;1.55;;;7.60;99.90;;;;;;5325923;26;20001;-71
2024/04/17 02:03:49;;;;;;;2.17;0.82;;;7.60;99.90;;;;;;5339212;26;20033;-71
2024/04/17 02:06:15;;;;;;;2.13;1.52;;;7.50;99.90;;;;;;5334911;26;20454;-71
2024/04/17 02:08:41;;;;;;;2.35;1.30;;;7.60;99.90;;;;;;5254511;26;20009;-72
2024/04/17 02:11:08;;;;;;;2.50;1.02;;;7.60;99.90;;;;;;5322583;26;20413;-72
2024/04/17 02:13:33;;;;;;;4.82;1.65;;;7.50;99.90;;;;;;5315891;26;20362;-72
2024/04/17 02:16:06;;;;;;;2.60;1.25;;;7.50;99.90;;;;;;5314372;26;20021;-71
2024/04/17 02:18:33;;;;;;;4.07;1.10;;;7.40;99.90;;;;;;5315876;26;20528;-71
2024/04/17 02:20:59;;;;;;;2.17;1.08;;;7.40;99.90;;;;;;5308945;26;19997;-72
2024/04/17 02:23:28;;;;;;;1.65;1.00;;;7.40;99.90;;;;;;5325381;26;20004;-72
2024/04/17 02:25:57;;;;;;;3.33;1.75;;;7.40;99.90;;;;;;5306203;26;20486;-71
2024/04/17 02:28:23;;;;;;;1.80;1.00;;;7.40;99.90;;;;;;5333955;26;20001;-71
2024/04/17 02:30:49;;;;;;;3.28;1.20;;;7.30;99.90;;;;;;5325068;26;20080;-71
2024/04/17 02:33:15;;;;;;;2.17;1.27;;;7.30;99.90;;;;;;5294869;26;20327;-71
2024/04/17 02:35:40;;;;;;;0.98;0.68;;;7.30;99.90;;;;;;5313347;26;20037;-71
2024/04/17 02:38:06;;;;;;;1.77;1.20;;;7.30;99.90;;;;;;5337803;26;19998;-71
2024/04/17 02:40:32;;;;;;;3.17;1.05;;;7.20;99.90;;;;;;5324421;26;20015;-71
2024/04/17 02:42:58;;;;;;;1.60;1.00;;;7.20;99.90;;;;;;5309555;26;20453;-71
2024/04/17 02:45:23;;;;;;;3.13;1.17;;;7.20;99.90;;;;;;5321243;26;20001;-71
2024/04/17 02:47:49;;;;;;;1.20;0.77;;;7.10;99.90;;;;;;5339636;26;20017;-72
2024/04/17 02:50:15;;;;;;;2.28;1.10;;;7.10;99.90;;;;;;5322172;26;20687;-72
2024/04/17 02:52:40;;;;;;;2.05;1.15;;;7.10;99.90;;;;;;5339076;26;20001;-72
2024/04/17 02:55:07;;;;;;;2.17;1.25;;;7.10;99.90;;;;;;5307711;26;20001;-72
2024/04/17 02:57:32;;;;;;;2.22;1.05;;;7.10;99.90;;;;;;5338555;26;20012;-72
2024/04/17 02:59:58;;;;;;;2.10;1.20;;;7.10;99.90;;;;;;5286029;26;20021;-72
2024/04/17 03:02:24;;;;;;;2.25;1.10;;;7.00;99.90;;;;;;5297243;26;20352;-71
2024/04/17 03:04:50;;;;;;;1.15;0.55;;;7.00;99.90;;;;;;5312326;26;20013;-71
2024/04/17 03:07:15;;;;;;;2.42;1.13;;;7.00;99.90;;;;;;5334469;26;20466;-71
2024/04/17 03:09:41;;;;;;;2.70;1.00;;;7.00;99.90;;;;;;5318951;26;20076;-71
2024/04/17 03:12:07;;;;;;;2.35;1.02;;;7.00;99.90;;;;;;5337966;26;20002;-72
2024/04/17 03:14:33;;;;;;;2.05;1.08;;;7.00;99.90;;;;;;5319646;26;20350;-71
2024/04/17 03:16:59;;;;;;;1.08;0.73;;;7.00;99.90;;;;;;5324229;26;20002;-71
2024/04/17 03:19:24;;;;;;;2.40;1.17;;;7.00;99.90;;;;;;5324398;26;20016;-71
2024/04/17 03:21:50;;;;;;;0.80;0.47;;;7.00;99.90;;;;;;5314101;26;20009;-71
2024/04/17 03:24:16;;;;;;;1.10;0.82;;;7.00;99.90;;;;;;5328190;26;20026;-71
2024/04/17 03:26:42;;;;;;;1.95;1.13;;;7.00;99.90;;;;;;5334827;26;20128;-71
2024/04/17 03:29:07;;;;;;;2.55;1.20;;;7.10;99.90;;;;;;5328847;26;20013;-71
2024/04/17 03:31:33;;;;;;;1.90;1.35;;;7.10;99.90;;;;;;5338879;26;20000;-71
2024/04/17 03:33:59;;;;;;;2.33;1.20;;;7.10;99.90;;;;;;5323048;26;20431;-71
2024/04/17 03:36:24;;;;;;;2.72;1.20;;;7.10;99.90;;;;;;5307549;26;20016;-71
2024/04/17 03:38:50;;;;;;;2.70;1.02;;;7.10;99.90;;;;;;5312062;26;20457;-71
2024/04/17 03:41:16;;;;;;;4.20;1.85;;;7.00;99.90;;;;;;5315538;26;20001;-70
2024/04/17 03:43:41;;;;;;;2.05;1.17;;;7.10;99.90;;;;;;5339467;26;19997;-70
2024/04/17 03:46:07;;;;;;;3.00;0.88;;;7.00;99.90;;;;;;5338393;26;20306;-71
2024/04/17 03:48:33;;;;;;;1.63;1.17;;;7.00;99.90;;;;;;5336976;26;20446;-70
2024/04/17 03:50:59;;;;;;;2.53;1.45;;;7.00;99.90;;;;;;5315297;26;20008;-72
2024/04/17 03:53:27;;;;;;;2.17;1.13;;;7.10;99.90;;;;;;5342647;26;20001;-72
2024/04/17 03:55:53;;;;;;;3.20;1.88;;;7.00;99.90;;;;;;5328350;26;20005;-71
2024/04/17 03:58:18;;;;;;;3.45;1.85;;;7.10;99.90;;;;;;5334103;26;20020;-72
2024/04/17 04:00:44;;;;;;;4.85;1.48;;;7.00;99.90;;;;;;5319807;26;19997;-71
2024/04/17 04:03:10;;;;;;;2.42;1.27;;;7.10;99.90;;;;;;5330200;26;19997;-71
2024/04/17 04:05:35;;;;;;;8.18;1.55;;;7.10;99.90;;;;;;5313039;26;20049;-71
2024/04/17 04:08:01;;;;;;;1.67;0.95;;;7.10;99.90;;;;;;5295658;26;20013;-71
2024/04/17 04:10:28;;;;;;;2.30;1.25;;;7.10;99.90;;;;;;5317131;26;20071;-71
2024/04/17 04:12:54;;;;;;;2.20;1.08;;;7.10;99.90;;;;;;5369694;26;19996;-72
2024/04/17 04:15:19;;;;;;;8.88;2.20;;;7.10;99.90;;;;;;5327224;26;20004;-71
2024/04/17 04:17:45;;;;;;;1.85;1.10;;;7.00;99.90;;;;;;5337921;26;20002;-71
2024/04/17 04:20:11;;;;;;;0.95;0.68;;;7.00;99.90;;;;;;5327007;26;20001;-71
2024/04/17 04:22:37;;;;;;;3.35;1.45;;;7.10;99.90;;;;;;5327120;26;20012;-71
2024/04/17 04:25:03;;;;;;;2.63;1.77;;;7.00;99.90;;;;;;5325067;26;20001;-71
2024/04/17 04:27:29;;;;;;;3.75;1.55;;;7.10;99.90;;;;;;5329315;26;20535;-71
2024/04/17 04:29:54;;;;;;;2.85;1.33;;;7.10;99.90;;;;;;5329202;26;20030;-72
2024/04/17 04:32:20;;;;;;;2.40;1.60;;;7.20;99.90;;;;;;5343877;26;20000;-72
2024/04/17 04:34:46;;;;;;;2.92;1.55;;;7.10;99.90;;;;;;5325963;26;20002;-71
2024/04/17 04:37:11;;;;;;;2.05;1.50;;;7.20;99.90;;;;;;5328863;26;20039;-72
2024/04/17 04:39:37;;;;;;;3.08;1.77;;;7.20;99.90;;;;;;5312260;26;20002;-72
2024/04/17 04:42:03;;;;;;;2.88;1.48;;;7.20;99.90;;;;;;5315737;26;21183;-71
2024/04/17 04:44:29;;;;;;;3.05;1.30;;;7.10;99.90;;;;;;5326471;26;20013;-72
2024/04/17 04:46:56;;;;;;;2.40;1.52;;;7.10;99.90;;;;;;5325666;26;20341;-72
2024/04/17 04:49:23;;;;;;;1.25;1.02;;;7.10;99.90;;;;;;5328099;26;20016;-71
2024/04/17 04:51:49;;;;;;;4.55;2.00;;;7.10;99.90;;;;;;5333356;26;20449;-71
2024/04/17 04:54:15;;;;;;;3.40;1.75;;;7.20;99.90;;;;;;5322945;26;20019;-71
2024/04/17 04:56:40;;;;;;;3.30;1.77;;;7.10;99.90;;;;;;5306839;26;19998;-71
2024/04/17 04:59:06;;;;;;;3.38;1.90;;;7.20;99.90;;;;;;5322228;26;19997;-71
2024/04/17 05:01:32;;;;;;;6.75;2.20;;;7.20;99.90;;;;;;5333568;26;20009;-71
2024/04/17 05:03:58;;;;;;;1.73;1.33;;;7.20;99.90;;;;;;5308192;26;20009;-71
2024/04/17 05:06:24;;;;;;;2.15;1.05;;;7.20;99.90;;;;;;5319725;26;20454;-72
2024/04/17 05:08:50;;;;;;;4.00;2.05;;;7.20;99.90;;;;;;5295769;26;20005;-72
2024/04/17 05:11:15;;;;;;;5.70;1.95;;;7.20;99.90;;;;;;5322350;26;20004;-72
2024/04/17 05:13:41;;;;;;;5.07;2.08;;;7.20;99.90;;;;;;5369073;26;20016;-71
2024/04/17 05:16:07;;;;;;;4.47;2.03;;;7.20;99.90;;;;;;5328716;26;20007;-71
2024/04/17 05:18:33;;;;;;;2.65;1.75;;;7.10;99.90;;;;;;5335413;26;19993;-71
2024/04/17 05:20:58;;;;;;;3.25;1.88;;;7.20;99.90;;;;;;5337146;26;20001;-71
2024/04/17 05:23:24;;;;;;;2.47;1.50;;;7.20;99.90;;;;;;5331875;26;20068;-70
2024/04/17 05:25:50;;;;;;;3.63;1.75;;;7.20;99.90;;;;;;5280710;26;20527;-71
2024/04/17 05:28:15;;;;;;;3.10;1.20;;;7.20;99.90;;;;;;5328974;26;20397;-72
2024/04/17 05:30:41;;;;;;;5.57;1.63;;;7.20;99.90;;;;;;5335726;26;20016;-69
2024/04/17 05:33:07;;;;;;;5.97;2.65;;;7.20;99.90;;;;;;5308707;26;19998;-71
2024/04/17 05:35:33;;;;;;;3.83;1.67;;;7.30;99.90;;;;;;5308837;26;20001;-70
2024/04/17 05:37:59;;;;;;;8.43;2.38;;;7.30;99.90;;;;;;5330893;26;20056;-69
2024/04/17 05:40:24;;;;;;;2.97;1.58;;;7.40;99.90;;;;;;5317370;26;20009;-69
2024/04/17 05:42:50;;;;;;;4.25;2.17;;;7.50;99.90;;;;;;5325232;26;19998;-69
2024/04/17 05:45:16;;;;;;;5.32;2.63;;;7.50;99.90;;;;;;5308276;26;20002;-70
2024/04/17 05:47:42;;;;;;;1.92;1.50;;;7.50;99.90;;;;;;5318351;26;20013;-70
2024/04/17 05:50:07;;;;;;;2.15;1.50;;;7.50;99.90;;;;;;5309176;26;20013;-69
2024/04/17 05:52:33;;;;;;;3.53;1.80;;;7.50;99.90;;;;;;5327328;26;20461;-71
2024/04/17 05:54:59;;;;;;;3.70;1.65;;;7.50;99.90;;;;;;5318448;26;20013;-70
2024/04/17 05:57:24;;;;;;;4.05;2.05;;;7.50;99.90;;;;;;5337268;26;20001;-70
2024/04/17 05:59:50;;;;;;;11.48;2.95;;;7.50;99.90;;;;;;5325701;26;20002;-70
2024/04/17 06:02:16;;;;;;;3.50;1.92;;;7.50;99.90;;;;;;5325758;26;20001;-70
2024/04/17 06:04:42;;;;;;;2.30;1.73;;;7.50;99.90;;;;;;5331053;26;20029;-69
2024/04/17 06:07:08;;;;;;;5.00;1.92;;;7.60;99.90;;;;;;5329814;26;20020;-69
2024/04/17 06:09:34;;;;;;;2.95;1.73;;;7.60;99.90;;;;;;5325646;26;20005;-71
2024/04/17 06:11:59;;;;;;;5.93;1.75;;;7.60;99.90;;;;;;5316711;26;20005;-70
2024/04/17 06:14:25;;;;;;;4.82;2.08;;;7.60;99.90;;;;;;5329233;26;20453;-70
2024/04/17 06:16:51;;;;;;;7.95;3.13;;;7.70;99.90;;;;;;5328275;26;20335;-70
2024/04/17 06:19:16;;;;;;;2.63;1.75;;;7.70;99.90;;;;;;5338296;26;20001;-71
2024/04/17 06:21:42;;;;;;;5.35;1.85;;;7.70;99.90;;;;;;5324861;26;20002;-71
2024/04/17 06:24:08;;;;;;;6.47;1.85;;;7.80;99.90;;;;;;5340536;26;20001;-70
2024/04/17 06:26:34;;;;;;;2.97;1.85;;;7.90;99.90;;;;;;5324029;26;20005;-71
2024/04/17 06:28:59;;;;;;;7.90;2.47;;;7.90;99.90;;;;;;5331120;26;20005;-70
2024/04/17 06:31:27;;;;;;;2.25;1.60;;;8.00;99.90;;;;;;5318715;26;20443;-71
2024/04/17 06:33:53;;;;;;;4.72;2.03;;;7.90;99.90;;;;;;5345372;21;20088;-71
2024/04/17 06:36:19;;;;;;;3.97;2.85;;;7.90;99.90;;;;;;5324565;26;20001;-73
2024/04/17 06:38:45;;;;;;;2.15;1.25;;;7.90;99.90;;;;;;5330080;26;20079;-72
2024/04/17 06:41:10;;;;;;;6.07;1.75;;;7.90;99.90;;;;;;5318246;26;20018;-72
2024/04/17 06:43:37;;;;;;;2.58;1.60;;;7.90;99.90;;;;;;5297816;26;20002;-73
2024/04/17 06:46:03;;;;;;;5.85;2.55;;;7.90;99.90;;;;;;5269738;27;20005;-73
2024/04/17 06:48:29;;;;;;;6.45;2.50;;;7.90;99.90;;;;;;5292548;27;20358;-73
2024/04/17 06:50:55;;;;;;;7.28;2.50;;;8.00;99.90;;;;;;5265695;27;20038;-73
2024/04/17 06:53:20;;;;;;;7.07;1.65;;;8.20;99.90;;;;;;5264930;27;20002;-73
2024/04/17 06:55:46;;;;;;;10.02;2.45;;;8.20;99.90;;;;;;5280497;27;20279;-72
2024/04/17 06:58:12;;;;;;;4.28;1.65;;;8.20;99.90;;;;;;5296813;27;20431;-73
2024/04/17 07:00:38;;;;;;;1.60;1.02;;;8.30;99.90;;;;;;5282718;27;20005;-75
2024/04/17 07:03:04;;;;;;;2.95;1.73;;;8.30;99.90;;;;;;5291139;26;20018;-71
2024/04/17 07:05:30;;;;;;;2.58;1.30;;;8.40;99.90;;;;;;5256110;27;20024;-72
2024/04/17 07:07:56;;;;;;;2.63;1.88;;;8.40;99.90;;;;;;5247067;27;20002;-71
2024/04/17 07:10:22;;;;;;;2.50;1.20;;;8.50;99.90;;;;;;5282943;27;20002;-72
2024/04/17 07:12:49;;;;;;;4.55;1.92;;;8.60;99.90;;;;;;5293402;26;20016;-72
2024/04/17 07:15:15;;;;;;;2.88;1.92;;;8.50;99.90;;;;;;5214113;27;20312;-73
2024/04/17 07:17:40;;;;;;;3.00;1.42;;;8.60;99.90;;;;;;5285579;27;20003;-72
2024/04/17 07:20:07;;;;;;;7.78;2.08;;;8.60;99.90;;;;;;5262318;27;20334;-74
2024/04/17 07:22:33;;;;;;;5.70;1.52;;;8.60;99.90;;;;;;5248161;27;20002;-72
2024/04/17 07:24:59;;;;;;;2.00;1.38;;;8.60;99.90;;;;;;5278620;27;20373;-71
2024/04/17 07:27:24;;;;;;;1.88;1.52;;;8.50;99.90;;;;;;5254688;27;19998;-72
2024/04/17 07:29:50;;;;;;;2.97;1.90;;;8.50;99.90;;;;;;5291917;27;20018;-72
2024/04/17 07:32:16;;;;;;;4.57;1.70;;;8.60;99.90;;;;;;5218475;27;20017;-73
2024/04/17 07:34:42;;;;;;;14.57;1.67;;;8.60;99.90;;;;;;5273707;27;20522;-71
2024/04/17 07:37:08;;;;;;;5.28;1.33;;;8.70;99.90;;;;;;5245821;27;20026;-72
2024/04/17 07:39:36;;;;;;;2.45;1.38;;;8.80;99.90;;;;;;5274610;27;19998;-72
2024/04/17 07:42:02;;;;;;;2.15;1.33;;;8.70;99.90;;;;;;5247093;27;20064;-72
2024/04/17 07:44:29;;;;;;;2.75;1.27;;;8.80;99.90;;;;;;5283910;27;19998;-72
2024/04/17 07:46:55;;;;;;;3.58;1.23;;;8.90;99.90;;;;;;5282972;27;19998;-71
2024/04/17 07:49:21;;;;;;;4.10;1.08;;;9.00;99.90;;;;;;5245305;27;20002;-71
2024/04/17 07:51:46;;;;;;;3.75;1.55;;;9.00;99.90;;;;;;5291985;27;20016;-71
2024/04/17 07:54:12;;;;;;;1.83;1.25;;;9.00;99.90;;;;;;5272588;27;20326;-72
2024/04/17 07:56:38;;;;;;;1.75;0.93;;;9.10;99.90;;;;;;5258875;27;19998;-72
2024/04/17 07:59:04;;;;;;;16.40;1.00;;;9.10;99.90;;;;;;5256311;27;20066;-72
2024/04/17 08:01:29;;;;;;;2.05;1.38;;;9.00;99.90;;;;;;5272917;27;20020;-74
2024/04/17 08:03:55;;;;;;;5.13;2.10;;;9.00;99.90;;;;;;5232985;27;20016;-73
2024/04/17 08:06:21;;;;;;;8.02;0.80;;;8.90;99.90;;;;;;5256041;27;20498;-70
2024/04/17 08:08:47;;;;;;;2.13;1.10;;;9.10;99.90;;;;;;5292505;27;20405;-70
2024/04/17 08:11:14;;;;;;;5.22;2.05;;;9.10;99.90;;;;;;5247940;27;20037;-71
2024/04/17 08:13:39;;;;;;;6.00;0.88;;;9.20;99.90;;;;;;5274408;27;20017;-71
2024/04/17 08:16:05;;;;;;;3.13;1.35;;;9.30;99.90;;;;;;5266157;27;20488;-72
2024/04/17 08:18:31;;;;;;;2.20;1.27;;;9.50;99.90;;;;;;5290489;27;19998;-70
2024/04/17 08:20:57;;;;;;;2.15;1.35;;;9.70;99.90;;;;;;5263884;27;20061;-70
2024/04/17 08:23:24;;;;;;;5.18;1.33;;;9.80;99.90;;;;;;5245851;27;20077;-70
2024/04/17 08:25:50;;;;;;;6.28;1.35;;;9.80;99.90;;;;;;5273580;27;20492;-70
2024/04/17 08:28:17;;;;;;;1.05;0.70;;;9.90;99.90;;;;;;5290026;27;20132;-70
2024/04/17 08:30:43;;;;;;;10.43;1.15;;;9.90;99.90;;;;;;5264265;27;20013;-69
2024/04/17 08:33:09;;;;;;;2.70;1.38;;;10.10;99.90;;;;;;5296493;26;20013;-70
2024/04/17 08:35:38;;;;;;;4.72;1.27;;;10.10;99.90;;;;;;5282852;27;20319;-71
2024/04/17 08:38:04;;;;;;;2.17;1.10;;;10.00;99.90;;;;;;5261508;27;20012;-68
2024/04/17 08:40:30;;;;;;;3.40;1.40;;;10.00;99.90;;;;;;5245163;27;20002;-70
2024/04/17 08:43:02;;;;;;;1.75;1.17;;;10.20;99.90;;;;;;5258997;27;20134;-71
2024/04/17 08:45:35;;;;;;;2.00;1.20;;;10.30;99.90;;;;;;5260092;27;20025;-71
2024/04/17 08:48:02;;;;;;;4.75;1.00;;;10.60;99.90;;;;;;5282244;27;20017;-71
2024/04/17 08:50:30;;;;;;;1.65;0.63;;;10.80;99.90;;;;;;5257310;27;20075;-69
2024/04/17 08:52:59;;;;;;;1.33;0.60;;;10.70;99.90;;;;;;5294866;27;20321;-70
2024/04/17 08:55:27;;;;;;;0.50;0.22;;;11.00;99.90;;;;;;5225928;27;20002;-71
2024/04/17 08:57:54;;;;;;;0.98;0.45;;;10.90;97.90;;;;;;5250697;27;20035;-70
2024/04/17 09:00:24;;;;;;;9.38;1.38;;;10.70;98.40;;;;;;5250699;27;19998;-70
2024/04/17 09:02:56;;;;;;;0.57;0.32;;;10.60;97.40;;;;;;5261634;27;19998;-70
2024/04/17 09:05:25;;;;;;;3.22;0.82;;;10.50;95.90;;;;;;5237011;27;20028;-71
2024/04/17 09:07:52;;;;;;;1.85;0.60;;;10.50;95.50;;;;;;5295083;27;20077;-70
2024/04/17 09:10:19;;;;;;;1.08;0.75;;;10.50;95.90;;;;;;5258390;27;20015;-69
2024/04/17 09:12:45;;;;;;;0.45;0.28;;;10.40;95.20;;;;;;5297059;26;20348;-71
2024/04/17 09:15:15;;;;;;;0.57;0.40;;;10.50;95.30;;;;;;5257287;27;19998;-70
2024/04/17 09:17:41;;;;;;;1.45;1.35;;;10.60;93.50;;;;;;5296903;27;20013;-71
2024/04/17 09:20:08;;;;;;;0.40;0.40;;;10.70;94.60;;;;;;5273581;27;20502;-69
2024/04/17 09:22:35;;;;;;;1.13;0.60;;;10.70;92.80;;;;;;5281232;26;20002;-70
2024/04/17 09:25:02;;;;;;;2.08;1.20;;;10.90;93.50;;;;;;5273047;27;20321;-69
2024/04/17 09:27:28;;;;;;;3.08;0.80;;;11.10;94.20;;;;;;5299762;27;20003;-69
2024/04/17 09:29:54;;;;;;;0.57;0.55;;;11.10;92.60;;;;;;5287441;27;20486;-70
2024/04/17 09:32:22;;;;;;;1.42;0.52;;;11.30;91.60;;;;;;5281277;26;20002;-70
2024/04/17 09:34:47;;;;;;;2.13;0.55;;;11.40;89.10;;;;;;5259169;27;20008;-70
2024/04/17 09:37:13;;;;;;;2.60;0.75;;;11.60;80.90;;;;;;5297427;27;20012;-70
2024/04/17 09:39:39;;;;;;;2.35;0.60;;;11.70;83.30;;;;;;5296576;27;19999;-70
2024/04/17 09:42:09;;;;;;;2.70;0.65;;;11.70;81.60;;;;;;5277566;27;19998;-71
2024/04/17 09:44:40;;;;;;;2.90;0.75;;;11.70;81.70;;;;;;5224500;27;20080;-70
2024/04/17 09:47:10;;;;;;;0.73;0.65;;;11.70;87.40;;;;;;5248192;27;20080;-70
2024/04/17 09:49:45;;;;;;;2.45;1.08;;;11.50;86.70;;;;;;5255519;27;20410;-69
2024/04/17 09:52:18;;;;;;;1.50;0.70;;;11.50;90.40;;;;;;5255979;27;20002;-69
2024/04/17 09:54:45;;;;;;;1.55;0.70;;;11.30;90.00;;;;;;5253210;27;19995;-69
2024/04/17 09:57:11;;;;;;;2.47;1.45;;;11.40;90.20;;;;;;5304054;27;20017;-70
2024/04/17 09:59:39;;;;;;;5.40;1.08;;;11.50;89.70;;;;;;5219662;27;20471;-70
2024/04/17 10:02:08;;;;;;;0.75;0.35;;;11.50;88.10;;;;;;5282610;27;20006;-69
2024/04/17 10:04:35;;;;;;;5.07;0.75;;;11.70;89.90;;;;;;5260385;27;19998;-71
2024/04/17 10:07:02;;;;;;;1.05;0.50;;;11.80;88.70;;;;;;5265802;27;19993;-70
2024/04/17 10:09:30;;;;;;;5.90;1.08;;;11.70;88.70;;;;;;5229546;27;21078;-70
2024/04/17 10:11:57;;;;;;;3.83;0.77;;;11.90;88.10;;;;;;5278936;27;20037;-70
2024/04/17 10:14:25;;;;;;;2.28;0.95;;;11.70;86.70;;;;;;5229279;27;20002;-70
2024/04/17 10:16:52;;;;;;;3.80;0.80;;;11.50;87.80;;;;;;5258898;27;20006;-69
2024/04/17 10:19:18;;;;;;;2.17;1.08;;;11.60;89.00;;;;;;5258890;27;20083;-70
2024/04/17 10:21:46;;;;;;;2.15;0.88;;;11.70;83.90;;;;;;5275181;27;20017;-70
2024/04/17 10:24:12;;;;;;;0.60;0.47;;;11.60;84.40;;;;;;5266211;27;20359;-72
2024/04/17 10:26:52;;;;;;;5.07;0.63;;;11.70;87.00;;;;;;5274763;27;20005;-72
2024/04/17 10:29:25;;;;;;;1.38;0.57;;;11.80;84.90;;;;;;5251684;27;20079;-71
2024/04/17 10:32:09;;;;;;;5.15;0.65;;;12.20;86.80;;;;;;5276460;27;20013;-73
2024/04/17 10:34:51;;;;;;;6.85;1.10;;;12.60;85.00;;;;;;5260770;27;20327;-72
2024/04/17 10:37:18;;;;;;;4.40;0.70;;;12.50;84.60;;;;;;5251688;27;20009;-71
2024/04/17 10:39:46;;;;;;;0.98;0.55;;;12.20;85.10;;;;;;5265215;27;20577;-70
2024/04/17 10:42:19;;;;;;;2.90;1.13;;;12.10;87.50;;;;;;5225998;27;20012;-71
2024/04/17 10:44:54;;;;;;;3.58;0.82;;;12.10;86.90;;;;;;5287278;27;19998;-71
2024/04/17 10:47:24;;;;;;;1.67;0.57;;;11.90;86.50;;;;;;5250677;27;20016;-71
2024/04/17 10:49:57;;;;;;;1.38;0.70;;;12.00;84.40;;;;;;5276542;27;20035;-69
2024/04/17 10:52:31;;;;;;;2.08;0.55;;;12.30;81.70;;;;;;5300463;27;19999;-73
2024/04/17 10:55:02;;;;;;;1.85;0.85;;;12.40;80.10;;;;;;5225431;27;20003;-71
2024/04/17 10:57:29;;;;;;;1.48;0.28;;;12.80;78.90;;;;;;5246469;27;20069;-70
2024/04/17 10:59:54;;;;;;;1.63;0.70;;;13.10;77.90;;;;;;5254660;27;20006;-71
2024/04/17 11:02:21;;;;;;;1.50;0.52;;;13.40;79.70;;;;;;5295792;26;20010;-70
2024/04/17 11:04:47;;;;;;;2.00;0.70;;;13.80;74.20;;;;;;5273994;27;20316;-70
2024/04/17 11:07:13;;;;;;;3.95;0.65;;;13.80;74.60;;;;;;5301862;27;19999;-71
2024/04/17 11:09:48;;;;;;;5.35;0.60;;;13.60;77.20;;;;;;5247357;27;20012;-71
2024/04/17 11:12:19;;;;;;;3.72;0.68;;;13.80;75.10;;;;;;5234725;27;20003;-72
2024/04/17 11:14:45;;;;;;;;;;;14.10;75.30;;;;;;5222268;27;20018;-72
2024/04/17 11:17:12;;;;;;;1.88;0.47;;;14.30;75.40;;;;;;5253404;27;19938;-72
2024/04/17 11:19:40;;;;;;;2.47;0.82;;;14.60;74.10;;;;;;5246925;27;20007;-71
2024/04/17 11:22:12;;;;;;;2.17;0.77;;;14.60;71.20;;;;;;5290361;27;20006;-72
2024/04/17 11:24:47;;;;;;;1.10;0.55;;;14.30;73.60;;;;;;5260048;27;20580;-72
2024/04/17 11:27:16;;;;;;;1.20;0.40;;;14.30;73.00;;;;;;5270853;27;20001;-71
2024/04/17 11:29:48;;;;;;;1.67;0.57;;;14.60;73.50;;;;;;5265564;27;20077;-73
2024/04/17 11:32:15;;;;;;;5.75;1.58;;;14.80;73.60;;;;;;5280277;27;19997;-72
2024/04/17 11:34:41;;;;;;;0.52;0.52;;;14.50;72.60;;;;;;5265840;27;20006;-71
2024/04/17 11:37:08;;;;;;;2.80;0.68;;;14.40;73.90;;;;;;5289637;27;20006;-72
2024/04/17 11:39:36;;;;;;;1.83;1.00;;;14.20;71.30;;;;;;5254105;27;19995;-71
2024/04/17 11:42:03;;;;;;;1.58;0.80;;;14.00;68.60;;;;;;5237333;27;20080;-71
2024/04/17 11:44:40;;;;;;;2.08;1.00;;;13.70;71.60;;;;;;5270156;27;20101;-71
2024/04/17 11:47:14;;;;;;;0.95;0.52;;;13.40;75.90;;;;;;5280227;27;20001;-71
2024/04/17 11:49:41;;;;;;;1.55;0.88;;;13.70;76.50;;;;;;5276881;27;20015;-71
2024/04/17 11:52:11;;;;;;;1.20;0.65;;;13.70;76.70;;;;;;5238425;27;20022;-71
2024/04/17 11:54:37;;;;;;;1.70;0.77;;;13.90;75.80;;;;;;5251877;27;20013;-72
2024/04/17 11:57:06;;;;;;;3.60;0.73;;;13.90;73.10;;;;;;5273273;27;20002;-72
2024/04/17 11:59:32;;;;;;;0.65;0.50;;;14.00;73.30;;;;;;5213963;27;20422;-71
2024/04/17 12:01:57;;;;;;;6.90;0.82;;;14.10;73.80;;;;;;5263506;27;19998;-72
2024/04/17 12:04:29;;;;;;;1.63;0.85;;;14.60;72.50;;;;;;5279391;27;20436;-71
2024/04/17 12:06:55;;;;;;;4.05;0.90;;;14.80;69.50;;;;;;5248923;27;20024;-72
2024/04/17 12:09:21;;;;;;;7.55;0.80;;;15.40;67.50;;;;;;5244752;27;20002;-73
2024/04/17 12:11:47;;;;;;;5.03;1.88;;;15.20;68.40;;;;;;5274256;27;20009;-73
2024/04/17 12:14:13;;;;;;;2.28;0.60;;;15.10;68.80;;;;;;5246615;27;20460;-72
2024/04/17 12:16:40;;;;;;;1.50;0.80;;;14.10;68.80;;;;;;5274413;27;20002;-71
2024/04/17 12:19:06;;;;;;;3.47;0.70;;;14.40;71.10;;;;;;5235902;27;20530;-72
2024/04/17 12:21:32;;;;;;;8.07;1.08;;;14.50;70.60;;;;;;5247915;27;19998;-71
2024/04/17 12:24:01;;;;;;;3.45;0.90;;;14.50;70.80;;;;;;5285086;27;20451;-71
2024/04/17 12:29:12;;;;;;;6.55;0.90;;;13.70;69.70;;;;;;5274343;27;20030;-72
2024/04/17 12:31:37;;;;;;;1.80;0.93;;;13.90;67.90;;;;;;5276874;27;20359;-73
2024/04/17 12:34:03;;;;;;;2.05;0.60;;;14.30;68.70;;;;;;5290255;21;20013;-70
2024/04/17 12:36:29;;;;;;;1.67;0.80;;;14.90;66.10;;;;;;5250210;27;20014;-71
2024/04/17 12:38:55;;;;;;;0.98;0.60;;;15.50;65.70;;;;;;5312417;26;20016;-69
2024/04/17 12:41:21;;;;;;;1.27;0.70;;;16.10;62.10;;;;;;5277736;27;19998;-70
2024/04/17 12:43:46;;;;;;;2.78;0.90;;;16.50;62.80;;;;;;5276431;27;20077;-70
2024/04/17 12:46:12;;;;;;;1.60;0.82;;;16.40;63.00;;;;;;5276693;27;20002;-71
2024/04/17 12:48:38;;;;;;;3.45;0.80;;;17.10;62.30;;;;;;5274817;27;20481;-70
2024/04/17 12:51:04;;;;;;;1.50;0.73;;;17.20;61.00;;;;;;5277314;27;20075;-70
2024/04/17 12:53:29;;;;;;;6.50;1.58;;;16.20;63.00;;;;;;5275205;27;20002;-70